Time,TemperatureF,DewpointF,PressureIn,WindDirection,WindDirectionDegrees,WindSpeedMPH,WindSpeedGustMPH,Humidity,HourlyPrecipIn,Conditions,Clouds,dailyrainin,SolarRadiationWatts/m^2,SoftwareType,DateUTC
2013-02-02 00:01:00,54.0,26.0,-100.00,NW,308,2.0,8.0,33,0.00,,,0.00,0.000000,,2013-02-02 08:01:00,
2013-02-02 00:11:00,54.0,26.0,-100.00,NW,308,2.0,8.0,33,0.00,,,0.00,0.000000,,2013-02-02 08:11:00,
2013-02-02 00:21:00,54.0,26.0,-100.00,NW,308,2.0,8.0,33,0.00,,,0.00,0.000000,,2013-02-02 08:21:00,
2013-02-02 00:53:00,52.0,25.0,-100.00,NW,318,1.0,4.0,34,0.00,,,0.00,0.000000,,2013-02-02 08:53:00,
2013-02-02 01:01:00,52.0,25.0,-100.00,NW,318,1.0,4.0,34,0.00,,,0.00,0.000000,,2013-02-02 09:01:00,
2013-02-02 01:11:00,52.0,25.0,-100.00,NW,318,1.0,4.0,34,0.00,,,0.00,0.000000,,2013-02-02 09:11:00,
2013-02-02 01:22:00,52.0,25.0,-100.00,NW,318,1.0,4.0,34,0.00,,,0.00,0.000000,,2013-02-02 09:22:00,
2013-02-02 01:52:00,54.0,25.0,-100.00,NW,306,1.0,4.0,32,0.00,,,-99.99,0.000000,,2013-02-02 09:52:00,
2013-02-02 02:01:00,54.0,25.0,-100.00,NW,306,1.0,4.0,32,0.00,,,-99.99,0.000000,,2013-02-02 10:01:00,
2013-02-02 02:11:00,54.0,25.0,-100.00,NW,306,1.0,4.0,32,0.00,,,-99.99,0.000000,,2013-02-02 10:11:00,
2013-02-02 02:21:00,54.0,25.0,-100.00,NW,306,1.0,4.0,32,0.00,,,-99.99,0.000000,,2013-02-02 10:21:00,
2013-02-02 02:52:00,52.0,24.0,-100.00,WNW,287,0.0,3.0,33,0.00,,,0.00,0.000000,,2013-02-02 10:52:00,
2013-02-02 03:01:00,52.0,24.0,-100.00,WNW,287,0.0,3.0,33,0.00,,,0.00,0.000000,,2013-02-02 11:01:00,
2013-02-02 03:11:00,52.0,24.0,-100.00,WNW,287,0.0,3.0,33,0.00,,,0.00,0.000000,,2013-02-02 11:11:00,
2013-02-02 03:21:00,52.0,24.0,-100.00,WNW,287,0.0,3.0,33,0.00,,,0.00,0.000000,,2013-02-02 11:21:00,
2013-02-02 03:52:00,53.0,24.0,-100.00,NNW,332,5.0,6.0,32,0.00,,,0.00,0.000000,,2013-02-02 11:52:00,
2013-02-02 04:01:00,53.0,24.0,-100.00,NNW,332,5.0,6.0,32,0.00,,,0.00,0.000000,,2013-02-02 12:01:00,
2013-02-02 04:11:00,53.0,24.0,-100.00,NNW,332,5.0,6.0,32,0.00,,,0.00,0.000000,,2013-02-02 12:11:00,
2013-02-02 04:22:00,53.0,24.0,-100.00,NNW,332,5.0,6.0,32,0.00,,,0.00,0.000000,,2013-02-02 12:22:00,
2013-02-02 04:52:00,51.0,22.0,-100.00,NNW,331,6.0,9.0,32,0.00,,,0.00,0.000000,,2013-02-02 12:52:00,
2013-02-02 05:02:00,51.0,22.0,-100.00,NNW,331,6.0,9.0,32,0.00,,,0.00,0.000000,,2013-02-02 13:02:00,
2013-02-02 05:11:00,51.0,22.0,-100.00,NNW,331,6.0,9.0,32,0.00,,,0.00,0.000000,,2013-02-02 13:11:00,
2013-02-02 05:21:00,51.0,22.0,-100.00,NNW,331,6.0,9.0,32,0.00,,,0.00,0.000000,,2013-02-02 13:21:00,
2013-02-02 05:52:00,52.0,22.0,-100.00,WNW,283,0.0,7.0,31,0.00,,,0.00,0.000000,,2013-02-02 13:52:00,
2013-02-02 06:02:00,52.0,22.0,-100.00,WNW,283,0.0,7.0,31,0.00,,,0.00,0.000000,,2013-02-02 14:02:00,
2013-02-02 06:11:00,52.0,22.0,-100.00,WNW,283,0.0,7.0,31,0.00,,,0.00,0.000000,,2013-02-02 14:11:00,
2013-02-02 06:22:00,52.0,22.0,-100.00,WNW,283,0.0,7.0,31,0.00,,,0.00,0.000000,,2013-02-02 14:22:00,
2013-02-02 06:52:00,50.0,22.0,-100.00,NW,305,4.0,6.0,33,0.00,,,0.00,0.000000,,2013-02-02 14:52:00,
2013-02-02 07:03:00,50.0,22.0,-100.00,NW,305,4.0,6.0,33,0.00,,,0.00,0.000000,,2013-02-02 15:03:00,
2013-02-02 07:12:00,50.0,22.0,-100.00,NW,305,4.0,6.0,33,0.00,,,0.00,0.000000,,2013-02-02 15:12:00,
2013-02-02 07:21:00,50.0,22.0,-100.00,NW,305,4.0,6.0,33,0.00,,,0.00,0.000000,,2013-02-02 15:21:00,
2013-02-02 07:52:00,50.0,22.0,-100.00,South,182,0.0,6.0,33,0.00,,,0.00,11.000000,,2013-02-02 15:52:00,
2013-02-02 08:02:00,50.0,22.0,-100.00,South,182,0.0,6.0,33,0.00,,,0.00,11.000000,,2013-02-02 16:02:00,
2013-02-02 08:11:00,50.0,22.0,-100.00,South,182,0.0,6.0,33,0.00,,,0.00,11.000000,,2013-02-02 16:11:00,
2013-02-02 08:22:00,50.0,22.0,-100.00,South,182,0.0,6.0,33,0.00,,,0.00,11.000000,,2013-02-02 16:22:00,
2013-02-02 08:52:00,52.0,22.0,-100.00,NW,310,4.0,8.0,31,0.00,,,0.00,109.000000,,2013-02-02 16:52:00,
2013-02-02 09:02:00,52.0,22.0,-100.00,NW,310,4.0,8.0,31,0.00,,,0.00,109.000000,,2013-02-02 17:02:00,
2013-02-02 09:11:00,52.0,22.0,-100.00,NW,310,4.0,8.0,31,0.00,,,0.00,109.000000,,2013-02-02 17:11:00,
2013-02-02 09:22:00,52.0,22.0,-100.00,NW,310,4.0,8.0,31,0.00,,,0.00,109.000000,,2013-02-02 17:22:00,
2013-02-02 09:52:00,55.0,23.0,-100.00,West,259,4.0,8.0,29,0.00,,,0.00,220.000000,,2013-02-02 17:52:00,
2013-02-02 10:02:00,55.0,23.0,-100.00,West,259,4.0,8.0,29,0.00,,,0.00,220.000000,,2013-02-02 18:02:00,
2013-02-02 10:52:00,57.0,23.0,-100.00,SE,145,1.0,9.0,27,0.00,,,0.00,266.000000,,2013-02-02 18:52:00,
2013-02-02 11:01:00,57.0,23.0,-100.00,SE,145,1.0,9.0,27,0.00,,,0.00,266.000000,,2013-02-02 19:01:00,
2013-02-02 11:52:00,64.0,24.0,-100.00,SSE,168,1.0,6.0,22,0.00,,,0.00,537.000000,,2013-02-02 19:52:00,
2013-02-02 12:01:00,64.0,24.0,-100.00,SSE,168,1.0,6.0,22,0.00,,,0.00,537.000000,,2013-02-02 20:01:00,
2013-02-02 12:52:00,62.0,23.0,-100.00,SSE,157,2.0,9.0,22,0.00,,,0.00,634.000000,,2013-02-02 20:52:00,
2013-02-02 13:02:00,62.0,23.0,-100.00,SSE,157,2.0,9.0,22,0.00,,,0.00,634.000000,,2013-02-02 21:02:00,
2013-02-02 13:11:00,62.0,23.0,-100.00,SSE,157,2.0,9.0,22,0.00,,,0.00,634.000000,,2013-02-02 21:11:00,
2013-02-02 13:21:00,62.0,23.0,-100.00,SSE,157,2.0,9.0,22,0.00,,,0.00,634.000000,,2013-02-02 21:21:00,
2013-02-02 13:52:00,61.0,25.0,-100.00,East,92,0.0,11.0,25,0.00,,,0.00,599.000000,,2013-02-02 21:52:00,
2013-02-02 14:02:00,61.0,25.0,-100.00,East,92,0.0,11.0,25,0.00,,,0.00,599.000000,,2013-02-02 22:02:00,
2013-02-02 14:11:00,61.0,25.0,-100.00,East,92,0.0,11.0,25,0.00,,,0.00,599.000000,,2013-02-02 22:11:00,
2013-02-02 14:21:00,61.0,25.0,-100.00,East,92,0.0,11.0,25,0.00,,,0.00,599.000000,,2013-02-02 22:21:00,
2013-02-02 14:52:00,60.0,21.0,-100.00,South,169,2.0,5.0,22,0.00,,,0.00,362.000000,,2013-02-02 22:52:00,
2013-02-02 15:01:00,60.0,21.0,-100.00,South,169,2.0,5.0,22,0.00,,,0.00,362.000000,,2013-02-02 23:01:00,
2013-02-02 15:11:00,60.0,21.0,-100.00,South,169,2.0,5.0,22,0.00,,,0.00,362.000000,,2013-02-02 23:11:00,
2013-02-02 15:21:00,60.0,21.0,-100.00,South,169,2.0,5.0,22,0.00,,,0.00,362.000000,,2013-02-02 23:21:00,
2013-02-02 15:52:00,60.0,23.0,-100.00,ESE,120,0.0,6.0,24,0.00,,,0.00,246.000000,,2013-02-02 23:52:00,
2013-02-02 16:01:00,60.0,23.0,-100.00,ESE,120,0.0,6.0,24,0.00,,,0.00,246.000000,,2013-02-03 00:01:00,
2013-02-02 16:11:00,60.0,23.0,-100.00,ESE,120,0.0,6.0,24,0.00,,,0.00,246.000000,,2013-02-03 00:11:00,
2013-02-02 16:21:00,60.0,23.0,-100.00,ESE,120,0.0,6.0,24,0.00,,,0.00,246.000000,,2013-02-03 00:21:00,
2013-02-02 16:52:00,59.0,23.0,-100.00,South,182,0.0,7.0,25,0.00,,,0.00,145.000000,,2013-02-03 00:52:00,
2013-02-02 17:02:00,59.0,23.0,-100.00,South,182,0.0,7.0,25,0.00,,,0.00,145.000000,,2013-02-03 01:02:00,
2013-02-02 17:11:00,59.0,23.0,-100.00,South,182,0.0,7.0,25,0.00,,,0.00,145.000000,,2013-02-03 01:11:00,
2013-02-02 17:21:00,59.0,23.0,-100.00,South,182,0.0,7.0,25,0.00,,,0.00,145.000000,,2013-02-03 01:21:00,
2013-02-02 17:52:00,57.0,22.0,-100.00,SW,231,5.0,8.0,26,0.00,,,0.00,28.000000,,2013-02-03 01:52:00,
2013-02-02 18:01:00,57.0,22.0,-100.00,SW,231,5.0,8.0,26,0.00,,,0.00,28.000000,,2013-02-03 02:01:00,
2013-02-02 18:11:00,57.0,22.0,-100.00,SW,231,5.0,8.0,26,0.00,,,0.00,28.000000,,2013-02-03 02:11:00,
2013-02-02 18:21:00,57.0,22.0,-100.00,SW,231,5.0,8.0,26,0.00,,,0.00,28.000000,,2013-02-03 02:21:00,
2013-02-02 18:52:00,55.0,21.0,-100.00,SW,219,6.0,8.0,26,0.00,,,0.00,0.000000,,2013-02-03 02:52:00,
2013-02-02 19:02:00,55.0,21.0,-100.00,SW,219,6.0,8.0,26,0.00,,,0.00,0.000000,,2013-02-03 03:02:00,
2013-02-02 19:11:00,55.0,21.0,-100.00,SW,219,6.0,8.0,26,0.00,,,0.00,0.000000,,2013-02-03 03:11:00,
2013-02-02 19:21:00,55.0,21.0,-100.00,SW,219,6.0,8.0,26,0.00,,,0.00,0.000000,,2013-02-03 03:21:00,
2013-02-02 19:52:00,55.0,23.0,-100.00,SSW,202,0.0,6.0,29,0.00,,,0.00,0.000000,,2013-02-03 03:52:00,
2013-02-02 20:01:00,55.0,23.0,-100.00,SSW,202,0.0,6.0,29,0.00,,,0.00,0.000000,,2013-02-03 04:01:00,
2013-02-02 20:11:00,55.0,23.0,-100.00,SSW,202,0.0,6.0,29,0.00,,,0.00,0.000000,,2013-02-03 04:11:00,
2013-02-02 20:21:00,55.0,23.0,-100.00,SSW,202,0.0,6.0,29,0.00,,,0.00,0.000000,,2013-02-03 04:21:00,
2013-02-02 20:52:00,56.0,23.0,-100.00,SW,232,7.0,8.0,27,0.00,,,0.00,0.000000,,2013-02-03 04:52:00,
2013-02-02 21:03:00,56.0,23.0,-100.00,SW,232,7.0,8.0,27,0.00,,,0.00,0.000000,,2013-02-03 05:03:00,
2013-02-02 21:11:00,56.0,23.0,-100.00,SW,232,7.0,8.0,27,0.00,,,0.00,0.000000,,2013-02-03 05:11:00,
2013-02-02 21:22:00,56.0,23.0,-100.00,SW,232,7.0,8.0,27,0.00,,,0.00,0.000000,,2013-02-03 05:22:00,
2013-02-02 21:52:00,58.0,28.0,-100.00,SE,141,3.0,15.0,32,0.00,,,0.00,0.000000,,2013-02-03 05:52:00,
2013-02-02 22:02:00,58.0,28.0,-100.00,SE,141,3.0,15.0,32,0.00,,,0.00,0.000000,,2013-02-03 06:02:00,
2013-02-02 22:11:00,58.0,28.0,-100.00,SE,141,3.0,15.0,32,0.00,,,0.00,0.000000,,2013-02-03 06:11:00,
2013-02-02 22:21:00,58.0,28.0,-100.00,SE,141,3.0,15.0,32,0.00,,,0.00,0.000000,,2013-02-03 06:21:00,
2013-02-02 22:52:00,54.0,28.0,-100.00,SSE,168,0.0,13.0,37,0.00,,,0.00,0.000000,,2013-02-03 06:52:00,
2013-02-02 23:01:00,54.0,28.0,-100.00,SSE,168,0.0,13.0,37,0.00,,,0.00,0.000000,,2013-02-03 07:01:00,
2013-02-02 23:11:00,54.0,28.0,-100.00,SSE,168,0.0,13.0,37,0.00,,,0.00,0.000000,,2013-02-03 07:11:00,
2013-02-02 23:21:00,54.0,28.0,-100.00,SSE,168,0.0,13.0,37,0.00,,,0.00,0.000000,,2013-02-03 07:21:00,
2013-02-02 23:52:00,51.0,33.0,-100.00,West,276,7.0,17.0,50,0.00,,,0.00,0.000000,,2013-02-03 07:52:00,